sensor_id;sensor_type;location;lat;lon;timestamp;P1;durP1;ratioP1;P2;durP2;ratioP2
60002;SDS011;46322;52.018;8.702;2022-07-29T00:01:28;5.30;;;1.80;;
60002;SDS011;46322;52.018;8.702;2022-07-29T00:06:28;4.53;;;1.90;;
60002;SDS011;46322;52.018;8.702;2022-07-29T00:11:29;4.93;;;1.73;;
60002;SDS011;46322;52.018;8.702;2022-07-29T00:16:29;4.97;;;1.60;;
60002;SDS011;46322;52.018;8.702;2022-07-29T00:21:29;6.13;;;1.70;;
60002;SDS011;46322;52.018;8.702;2022-07-29T00:26:29;4.47;;;1.60;;
60002;SDS011;46322;52.018;8.702;2022-07-29T00:31:30;7.28;;;2.00;;
60002;SDS011;46322;52.018;8.702;2022-07-29T00:36:30;5.78;;;1.55;;
60002;SDS011;46322;52.018;8.702;2022-07-29T00:41:30;4.30;;;1.63;;
60002;SDS011;46322;52.018;8.702;2022-07-29T00:46:30;5.43;;;1.42;;
60002;SDS011;46322;52.018;8.702;2022-07-29T00:51:31;5.80;;;1.70;;
60002;SDS011;46322;52.018;8.702;2022-07-29T00:56:32;3.77;;;1.47;;
60002;SDS011;46322;52.018;8.702;2022-07-29T01:01:33;5.53;;;1.55;;
60002;SDS011;46322;52.018;8.702;2022-07-29T01:06:33;5.18;;;1.90;;
60002;SDS011;46322;52.018;8.702;2022-07-29T01:11:34;4.07;;;1.93;;
60002;SDS011;46322;52.018;8.702;2022-07-29T01:16:38;6.60;;;1.80;;
60002;SDS011;46322;52.018;8.702;2022-07-29T01:21:57;5.78;;;1.65;;
60002;SDS011;46322;52.018;8.702;2022-07-29T01:32:40;5.80;;;1.80;;
60002;SDS011;46322;52.018;8.702;2022-07-29T01:37:48;7.82;;;1.70;;
60002;SDS011;46322;52.018;8.702;2022-07-29T01:42:55;6.23;;;1.70;;
60002;SDS011;46322;52.018;8.702;2022-07-29T01:53:09;5.82;;;1.80;;
60002;SDS011;46322;52.018;8.702;2022-07-29T01:58:12;4.50;;;1.90;;
60002;SDS011;46322;52.018;8.702;2022-07-29T02:03:15;4.50;;;1.63;;
60002;SDS011;46322;52.018;8.702;2022-07-29T02:08:18;4.82;;;1.80;;
60002;SDS011;46322;52.018;8.702;2022-07-29T02:13:19;5.82;;;1.70;;
60002;SDS011;46322;52.018;8.702;2022-07-29T02:18:23;4.47;;;1.60;;
60002;SDS011;46322;52.018;8.702;2022-07-29T02:23:27;4.30;;;1.70;;
60002;SDS011;46322;52.018;8.702;2022-07-29T02:28:28;6.50;;;1.70;;
60002;SDS011;46322;52.018;8.702;2022-07-29T02:33:30;4.85;;;1.63;;
60002;SDS011;46322;52.018;8.702;2022-07-29T02:38:31;4.90;;;1.60;;
60002;SDS011;46322;52.018;8.702;2022-07-29T02:43:32;5.07;;;1.67;;
60002;SDS011;46322;52.018;8.702;2022-07-29T02:48:37;3.88;;;1.70;;
60002;SDS011;46322;52.018;8.702;2022-07-29T02:53:40;6.17;;;1.80;;
60002;SDS011;46322;52.018;8.702;2022-07-29T02:58:49;7.90;;;1.70;;
60002;SDS011;46322;52.018;8.702;2022-07-29T03:03:53;5.50;;;1.83;;
60002;SDS011;46322;52.018;8.702;2022-07-29T03:08:54;4.67;;;2.00;;
60002;SDS011;46322;52.018;8.702;2022-07-29T03:13:56;5.13;;;1.80;;
60002;SDS011;46322;52.018;8.702;2022-07-29T03:18:56;3.87;;;1.50;;
60002;SDS011;46322;52.018;8.702;2022-07-29T03:23:57;3.30;;;1.45;;
60002;SDS011;46322;52.018;8.702;2022-07-29T03:28:58;4.22;;;1.70;;
60002;SDS011;46322;52.018;8.702;2022-07-29T03:33:58;4.57;;;1.88;;
60002;SDS011;46322;52.018;8.702;2022-07-29T03:38:58;4.40;;;1.60;;
60002;SDS011;46322;52.018;8.702;2022-07-29T03:44:00;5.80;;;1.80;;
60002;SDS011;46322;52.018;8.702;2022-07-29T03:49:03;3.38;;;1.80;;
60002;SDS011;46322;52.018;8.702;2022-07-29T03:54:04;5.78;;;1.75;;
60002;SDS011;46322;52.018;8.702;2022-07-29T03:59:05;5.03;;;1.43;;
60002;SDS011;46322;52.018;8.702;2022-07-29T04:04:05;4.68;;;1.30;;
60002;SDS011;46322;52.018;8.702;2022-07-29T04:09:06;5.03;;;1.73;;
60002;SDS011;46322;52.018;8.702;2022-07-29T04:14:07;8.30;;;1.70;;
60002;SDS011;46322;52.018;8.702;2022-07-29T04:19:07;4.93;;;1.55;;
60002;SDS011;46322;52.018;8.702;2022-07-29T04:24:07;4.03;;;1.65;;
60002;SDS011;46322;52.018;8.702;2022-07-29T04:29:08;5.80;;;1.95;;
60002;SDS011;46322;52.018;8.702;2022-07-29T04:34:09;5.60;;;2.10;;
60002;SDS011;46322;52.018;8.702;2022-07-29T04:39:30;4.15;;;1.63;;
60002;SDS011;46322;52.018;8.702;2022-07-29T04:44:30;4.72;;;1.70;;
60002;SDS011;46322;52.018;8.702;2022-07-29T04:49:39;4.37;;;1.67;;
60002;SDS011;46322;52.018;8.702;2022-07-29T04:54:39;4.05;;;1.88;;
60002;SDS011;46322;52.018;8.702;2022-07-29T04:59:54;4.80;;;1.75;;
60002;SDS011;46322;52.018;8.702;2022-07-29T05:04:55;4.78;;;1.55;;
60002;SDS011;46322;52.018;8.702;2022-07-29T05:10:08;3.73;;;1.67;;
60002;SDS011;46322;52.018;8.702;2022-07-29T05:15:08;5.18;;;1.90;;
60002;SDS011;46322;52.018;8.702;2022-07-29T05:20:09;5.27;;;1.60;;
60002;SDS011;46322;52.018;8.702;2022-07-29T05:25:10;6.32;;;1.75;;
60002;SDS011;46322;52.018;8.702;2022-07-29T05:30:10;3.77;;;1.77;;
60002;SDS011;46322;52.018;8.702;2022-07-29T05:35:11;4.07;;;1.70;;
60002;SDS011;46322;52.018;8.702;2022-07-29T05:40:12;4.27;;;1.67;;
60002;SDS011;46322;52.018;8.702;2022-07-29T05:45:12;7.77;;;1.87;;
60002;SDS011;46322;52.018;8.702;2022-07-29T05:50:17;5.03;;;1.57;;
60002;SDS011;46322;52.018;8.702;2022-07-29T05:55:18;5.03;;;1.70;;
60002;SDS011;46322;52.018;8.702;2022-07-29T06:00:18;6.00;;;1.70;;
60002;SDS011;46322;52.018;8.702;2022-07-29T06:05:18;5.00;;;1.90;;
60002;SDS011;46322;52.018;8.702;2022-07-29T06:10:18;4.03;;;1.70;;
60002;SDS011;46322;52.018;8.702;2022-07-29T06:15:19;4.73;;;1.70;;
60002;SDS011;46322;52.018;8.702;2022-07-29T06:20:19;6.17;;;1.90;;
60002;SDS011;46322;52.018;8.702;2022-07-29T06:25:19;6.55;;;1.98;;
60002;SDS011;46322;52.018;8.702;2022-07-29T06:30:20;5.23;;;1.60;;
60002;SDS011;46322;52.018;8.702;2022-07-29T06:35:20;8.67;;;1.80;;
60002;SDS011;46322;52.018;8.702;2022-07-29T06:40:21;7.90;;;1.97;;
60002;SDS011;46322;52.018;8.702;2022-07-29T06:45:21;5.22;;;1.58;;
60002;SDS011;46322;52.018;8.702;2022-07-29T06:50:21;6.70;;;1.80;;
60002;SDS011;46322;52.018;8.702;2022-07-29T06:55:22;7.22;;;1.70;;
60002;SDS011;46322;52.018;8.702;2022-07-29T07:00:22;4.47;;;1.67;;
60002;SDS011;46322;52.018;8.702;2022-07-29T07:05:22;4.88;;;1.52;;
60002;SDS011;46322;52.018;8.702;2022-07-29T07:10:22;5.40;;;1.70;;
60002;SDS011;46322;52.018;8.702;2022-07-29T07:15:23;4.80;;;1.58;;
60002;SDS011;46322;52.018;8.702;2022-07-29T07:20:23;6.53;;;1.63;;
60002;SDS011;46322;52.018;8.702;2022-07-29T07:25:24;3.95;;;1.70;;
60002;SDS011;46322;52.018;8.702;2022-07-29T07:30:25;4.93;;;1.70;;
60002;SDS011;46322;52.018;8.702;2022-07-29T07:35:25;6.27;;;2.00;;
60002;SDS011;46322;52.018;8.702;2022-07-29T07:40:25;6.85;;;1.92;;
60002;SDS011;46322;52.018;8.702;2022-07-29T07:45:26;4.83;;;1.80;;
60002;SDS011;46322;52.018;8.702;2022-07-29T07:50:27;4.70;;;1.90;;
60002;SDS011;46322;52.018;8.702;2022-07-29T07:55:28;4.13;;;2.07;;
60002;SDS011;46322;52.018;8.702;2022-07-29T08:00:28;4.50;;;1.70;;
60002;SDS011;46322;52.018;8.702;2022-07-29T08:05:28;5.30;;;1.80;;
60002;SDS011;46322;52.018;8.702;2022-07-29T08:10:28;4.80;;;1.90;;
60002;SDS011;46322;52.018;8.702;2022-07-29T08:15:29;3.50;;;1.98;;
60002;SDS011;46322;52.018;8.702;2022-07-29T08:20:29;5.75;;;2.05;;
60002;SDS011;46322;52.018;8.702;2022-07-29T08:25:29;3.72;;;2.00;;
60002;SDS011;46322;52.018;8.702;2022-07-29T08:30:30;5.43;;;1.93;;
60002;SDS011;46322;52.018;8.702;2022-07-29T08:35:30;6.03;;;1.60;;
60002;SDS011;46322;52.018;8.702;2022-07-29T08:40:30;4.28;;;1.90;;
60002;SDS011;46322;52.018;8.702;2022-07-29T08:45:31;4.23;;;1.90;;
60002;SDS011;46322;52.018;8.702;2022-07-29T08:50:46;7.20;;;2.40;;
60002;SDS011;46322;52.018;8.702;2022-07-29T08:55:48;7.23;;;2.17;;
60002;SDS011;46322;52.018;8.702;2022-07-29T09:00:50;7.80;;;1.92;;
60002;SDS011;46322;52.018;8.702;2022-07-29T09:05:52;5.78;;;2.05;;
60002;SDS011;46322;52.018;8.702;2022-07-29T09:10:54;6.10;;;1.90;;
60002;SDS011;46322;52.018;8.702;2022-07-29T09:15:54;6.80;;;2.03;;
60002;SDS011;46322;52.018;8.702;2022-07-29T09:20:55;5.53;;;2.13;;
60002;SDS011;46322;52.018;8.702;2022-07-29T09:25:55;8.77;;;1.90;;
60002;SDS011;46322;52.018;8.702;2022-07-29T09:31:05;5.38;;;2.13;;
60002;SDS011;46322;52.018;8.702;2022-07-29T09:36:06;5.70;;;2.07;;
60002;SDS011;46322;52.018;8.702;2022-07-29T09:41:08;3.93;;;2.27;;
60002;SDS011;46322;52.018;8.702;2022-07-29T09:46:11;4.47;;;2.50;;
60002;SDS011;46322;52.018;8.702;2022-07-29T09:51:16;5.33;;;2.60;;
60002;SDS011;46322;52.018;8.702;2022-07-29T09:56:20;6.13;;;2.40;;
60002;SDS011;46322;52.018;8.702;2022-07-29T10:01:27;5.33;;;2.57;;
60002;SDS011;46322;52.018;8.702;2022-07-29T10:06:28;6.55;;;2.67;;
60002;SDS011;46322;52.018;8.702;2022-07-29T10:11:28;6.50;;;2.88;;
60002;SDS011;46322;52.018;8.702;2022-07-29T10:16:31;6.65;;;2.95;;
60002;SDS011;46322;52.018;8.702;2022-07-29T10:21:32;7.27;;;2.70;;
60002;SDS011;46322;52.018;8.702;2022-07-29T10:26:32;5.77;;;2.97;;
60002;SDS011;46322;52.018;8.702;2022-07-29T10:31:42;5.68;;;2.33;;
60002;SDS011;46322;52.018;8.702;2022-07-29T10:42:23;6.88;;;3.25;;
60002;SDS011;46322;52.018;8.702;2022-07-29T10:47:26;7.10;;;3.25;;
60002;SDS011;46322;52.018;8.702;2022-07-29T10:58:10;8.40;;;3.25;;
60002;SDS011;46322;52.018;8.702;2022-07-29T11:08:47;7.73;;;3.43;;
60002;SDS011;46322;52.018;8.702;2022-07-29T11:14:18;7.17;;;3.20;;
60002;SDS011;46322;52.018;8.702;2022-07-29T11:31:11;9.97;;;3.30;;
60002;SDS011;46322;52.018;8.702;2022-07-29T11:36:13;6.77;;;3.60;;
60002;SDS011;46322;52.018;8.702;2022-07-29T11:51:42;7.00;;;3.40;;
60002;SDS011;46322;52.018;8.702;2022-07-29T11:56:58;6.47;;;3.50;;
60002;SDS011;46322;52.018;8.702;2022-07-29T12:01:59;8.50;;;3.80;;
60002;SDS011;46322;52.018;8.702;2022-07-29T12:06:59;7.17;;;4.13;;
60002;SDS011;46322;52.018;8.702;2022-07-29T12:12:00;7.33;;;3.70;;
60002;SDS011;46322;52.018;8.702;2022-07-29T12:17:00;6.20;;;3.80;;
60002;SDS011;46322;52.018;8.702;2022-07-29T12:22:01;7.82;;;4.20;;
60002;SDS011;46322;52.018;8.702;2022-07-29T12:27:01;5.38;;;3.83;;
60002;SDS011;46322;52.018;8.702;2022-07-29T12:32:02;9.53;;;4.30;;
60002;SDS011;46322;52.018;8.702;2022-07-29T12:37:03;11.60;;;7.95;;
60002;SDS011;46322;52.018;8.702;2022-07-29T12:42:11;7.97;;;4.40;;
60002;SDS011;46322;52.018;8.702;2022-07-29T12:47:15;6.60;;;3.63;;
60002;SDS011;46322;52.018;8.702;2022-07-29T12:57:26;6.70;;;4.10;;
60002;SDS011;46322;52.018;8.702;2022-07-29T13:02:27;8.25;;;3.60;;
60002;SDS011;46322;52.018;8.702;2022-07-29T13:07:28;9.83;;;3.80;;
60002;SDS011;46322;52.018;8.702;2022-07-29T13:12:29;8.77;;;4.10;;
60002;SDS011;46322;52.018;8.702;2022-07-29T13:17:30;7.47;;;3.70;;
60002;SDS011;46322;52.018;8.702;2022-07-29T13:22:41;5.83;;;4.13;;
60002;SDS011;46322;52.018;8.702;2022-07-29T13:27:41;6.03;;;3.88;;
60002;SDS011;46322;52.018;8.702;2022-07-29T13:32:42;6.95;;;3.75;;
60002;SDS011;46322;52.018;8.702;2022-07-29T13:37:42;7.35;;;3.42;;
60002;SDS011;46322;52.018;8.702;2022-07-29T13:42:42;5.90;;;3.80;;
60002;SDS011;46322;52.018;8.702;2022-07-29T13:47:43;7.27;;;3.60;;
60002;SDS011;46322;52.018;8.702;2022-07-29T13:52:43;6.38;;;3.92;;
60002;SDS011;46322;52.018;8.702;2022-07-29T13:57:44;6.37;;;3.33;;
60002;SDS011;46322;52.018;8.702;2022-07-29T14:02:45;6.80;;;3.70;;
60002;SDS011;46322;52.018;8.702;2022-07-29T14:07:46;5.97;;;3.42;;
60002;SDS011;46322;52.018;8.702;2022-07-29T14:12:46;6.23;;;3.30;;
60002;SDS011;46322;52.018;8.702;2022-07-29T14:17:46;6.40;;;3.47;;
60002;SDS011;46322;52.018;8.702;2022-07-29T14:22:47;7.63;;;2.83;;
60002;SDS011;46322;52.018;8.702;2022-07-29T14:27:50;6.00;;;3.40;;
60002;SDS011;46322;52.018;8.702;2022-07-29T14:32:50;6.60;;;3.60;;
60002;SDS011;46322;52.018;8.702;2022-07-29T14:37:50;6.32;;;3.65;;
60002;SDS011;46322;52.018;8.702;2022-07-29T14:42:51;6.10;;;3.30;;
60002;SDS011;46322;52.018;8.702;2022-07-29T14:47:51;6.10;;;3.33;;
60002;SDS011;46322;52.018;8.702;2022-07-29T14:52:52;6.30;;;3.40;;
60002;SDS011;46322;52.018;8.702;2022-07-29T14:57:52;6.80;;;3.97;;
60002;SDS011;46322;52.018;8.702;2022-07-29T15:02:53;9.02;;;3.50;;
60002;SDS011;46322;52.018;8.702;2022-07-29T15:07:53;7.93;;;3.47;;
60002;SDS011;46322;52.018;8.702;2022-07-29T15:12:54;6.93;;;3.63;;
60002;SDS011;46322;52.018;8.702;2022-07-29T15:17:54;7.05;;;3.28;;
60002;SDS011;46322;52.018;8.702;2022-07-29T15:22:55;6.10;;;3.58;;
60002;SDS011;46322;52.018;8.702;2022-07-29T15:27:55;7.20;;;3.43;;
60002;SDS011;46322;52.018;8.702;2022-07-29T15:32:55;9.23;;;3.40;;
60002;SDS011;46322;52.018;8.702;2022-07-29T15:37:56;5.85;;;3.20;;
60002;SDS011;46322;52.018;8.702;2022-07-29T15:42:56;6.03;;;3.40;;
60002;SDS011;46322;52.018;8.702;2022-07-29T15:47:57;5.40;;;3.47;;
60002;SDS011;46322;52.018;8.702;2022-07-29T15:52:58;11.15;;;3.70;;
60002;SDS011;46322;52.018;8.702;2022-07-29T15:57:58;9.40;;;3.67;;
60002;SDS011;46322;52.018;8.702;2022-07-29T16:02:58;6.85;;;3.38;;
60002;SDS011;46322;52.018;8.702;2022-07-29T16:07:59;9.93;;;3.63;;
60002;SDS011;46322;52.018;8.702;2022-07-29T16:12:59;6.87;;;3.60;;
60002;SDS011;46322;52.018;8.702;2022-07-29T16:17:59;7.22;;;3.10;;
60002;SDS011;46322;52.018;8.702;2022-07-29T16:22:59;8.57;;;3.97;;
60002;SDS011;46322;52.018;8.702;2022-07-29T16:28:00;7.27;;;3.70;;
60002;SDS011;46322;52.018;8.702;2022-07-29T16:33:01;7.38;;;3.80;;
60002;SDS011;46322;52.018;8.702;2022-07-29T16:38:03;7.57;;;3.97;;
60002;SDS011;46322;52.018;8.702;2022-07-29T16:43:03;9.17;;;4.10;;
60002;SDS011;46322;52.018;8.702;2022-07-29T16:48:03;7.37;;;4.00;;
60002;SDS011;46322;52.018;8.702;2022-07-29T16:53:04;8.38;;;3.80;;
60002;SDS011;46322;52.018;8.702;2022-07-29T16:58:05;6.53;;;4.18;;
60002;SDS011;46322;52.018;8.702;2022-07-29T17:03:05;7.32;;;4.07;;
60002;SDS011;46322;52.018;8.702;2022-07-29T17:08:05;6.93;;;3.70;;
60002;SDS011;46322;52.018;8.702;2022-07-29T17:13:06;9.35;;;3.97;;
60002;SDS011;46322;52.018;8.702;2022-07-29T17:18:06;7.22;;;3.97;;
60002;SDS011;46322;52.018;8.702;2022-07-29T17:23:06;5.57;;;3.77;;
60002;SDS011;46322;52.018;8.702;2022-07-29T17:28:07;7.38;;;4.20;;
60002;SDS011;46322;52.018;8.702;2022-07-29T17:33:07;10.48;;;4.30;;
60002;SDS011;46322;52.018;8.702;2022-07-29T17:38:07;6.63;;;4.90;;
60002;SDS011;46322;52.018;8.702;2022-07-29T17:43:07;9.63;;;5.65;;
60002;SDS011;46322;52.018;8.702;2022-07-29T17:48:08;7.82;;;4.35;;
60002;SDS011;46322;52.018;8.702;2022-07-29T17:53:08;10.33;;;4.50;;
60002;SDS011;46322;52.018;8.702;2022-07-29T17:58:08;8.82;;;4.57;;
60002;SDS011;46322;52.018;8.702;2022-07-29T18:03:09;8.67;;;3.90;;
60002;SDS011;46322;52.018;8.702;2022-07-29T18:08:09;9.02;;;4.10;;
60002;SDS011;46322;52.018;8.702;2022-07-29T18:13:09;10.37;;;4.43;;
60002;SDS011;46322;52.018;8.702;2022-07-29T18:18:12;8.23;;;4.53;;
60002;SDS011;46322;52.018;8.702;2022-07-29T18:23:13;9.65;;;4.47;;
60002;SDS011;46322;52.018;8.702;2022-07-29T18:28:13;9.27;;;4.90;;
60002;SDS011;46322;52.018;8.702;2022-07-29T18:33:14;13.03;;;5.50;;
60002;SDS011;46322;52.018;8.702;2022-07-29T18:38:14;12.68;;;6.57;;
60002;SDS011;46322;52.018;8.702;2022-07-29T18:43:14;11.73;;;7.27;;
60002;SDS011;46322;52.018;8.702;2022-07-29T18:48:15;13.25;;;7.82;;
60002;SDS011;46322;52.018;8.702;2022-07-29T18:53:16;16.67;;;9.23;;
60002;SDS011;46322;52.018;8.702;2022-07-29T18:58:16;14.05;;;9.45;;
60002;SDS011;46322;52.018;8.702;2022-07-29T19:03:17;14.15;;;9.10;;
60002;SDS011;46322;52.018;8.702;2022-07-29T19:08:17;16.17;;;9.73;;
60002;SDS011;46322;52.018;8.702;2022-07-29T19:13:18;16.87;;;9.67;;
60002;SDS011;46322;52.018;8.702;2022-07-29T19:18:18;12.57;;;8.47;;
60002;SDS011;46322;52.018;8.702;2022-07-29T19:23:18;15.25;;;9.95;;
60002;SDS011;46322;52.018;8.702;2022-07-29T19:28:18;13.70;;;9.70;;
60002;SDS011;46322;52.018;8.702;2022-07-29T19:33:19;15.07;;;10.73;;
60002;SDS011;46322;52.018;8.702;2022-07-29T19:38:19;15.23;;;9.25;;
60002;SDS011;46322;52.018;8.702;2022-07-29T19:43:19;13.87;;;9.67;;
60002;SDS011;46322;52.018;8.702;2022-07-29T19:48:20;13.60;;;9.38;;
60002;SDS011;46322;52.018;8.702;2022-07-29T19:53:20;15.95;;;10.75;;
60002;SDS011;46322;52.018;8.702;2022-07-29T19:58:20;14.33;;;9.17;;
60002;SDS011;46322;52.018;8.702;2022-07-29T20:03:21;13.47;;;9.53;;
60002;SDS011;46322;52.018;8.702;2022-07-29T20:08:21;14.10;;;9.27;;
60002;SDS011;46322;52.018;8.702;2022-07-29T20:13:21;15.32;;;9.93;;
60002;SDS011;46322;52.018;8.702;2022-07-29T20:18:22;13.93;;;10.27;;
60002;SDS011;46322;52.018;8.702;2022-07-29T20:23:22;15.10;;;10.17;;
60002;SDS011;46322;52.018;8.702;2022-07-29T20:28:22;14.13;;;9.67;;
60002;SDS011;46322;52.018;8.702;2022-07-29T20:33:22;12.70;;;8.10;;
60002;SDS011;46322;52.018;8.702;2022-07-29T20:38:23;15.80;;;9.50;;
60002;SDS011;46322;52.018;8.702;2022-07-29T20:43:23;13.30;;;9.80;;
60002;SDS011;46322;52.018;8.702;2022-07-29T20:48:24;14.38;;;9.80;;
60002;SDS011;46322;52.018;8.702;2022-07-29T20:53:24;13.38;;;9.52;;
60002;SDS011;46322;52.018;8.702;2022-07-29T20:58:25;13.88;;;9.88;;
60002;SDS011;46322;52.018;8.702;2022-07-29T21:03:25;14.32;;;10.05;;
60002;SDS011;46322;52.018;8.702;2022-07-29T21:08:25;15.75;;;11.02;;
60002;SDS011;46322;52.018;8.702;2022-07-29T21:13:26;14.87;;;9.80;;
60002;SDS011;46322;52.018;8.702;2022-07-29T21:18:27;13.83;;;10.00;;
60002;SDS011;46322;52.018;8.702;2022-07-29T21:23:28;15.03;;;9.47;;
60002;SDS011;46322;52.018;8.702;2022-07-29T21:28:29;14.65;;;9.32;;
60002;SDS011;46322;52.018;8.702;2022-07-29T21:33:30;12.32;;;9.25;;
60002;SDS011;46322;52.018;8.702;2022-07-29T21:38:34;13.03;;;9.20;;
60002;SDS011;46322;52.018;8.702;2022-07-29T21:43:35;14.70;;;10.07;;
60002;SDS011;46322;52.018;8.702;2022-07-29T21:48:35;16.83;;;10.30;;
60002;SDS011;46322;52.018;8.702;2022-07-29T21:53:35;15.47;;;10.40;;
60002;SDS011;46322;52.018;8.702;2022-07-29T21:58:35;14.25;;;9.68;;
60002;SDS011;46322;52.018;8.702;2022-07-29T22:03:36;12.95;;;10.18;;
60002;SDS011;46322;52.018;8.702;2022-07-29T22:08:36;16.00;;;10.77;;
60002;SDS011;46322;52.018;8.702;2022-07-29T22:13:36;15.43;;;10.02;;
60002;SDS011;46322;52.018;8.702;2022-07-29T22:18:36;13.38;;;10.23;;
60002;SDS011;46322;52.018;8.702;2022-07-29T22:23:37;13.27;;;10.02;;
60002;SDS011;46322;52.018;8.702;2022-07-29T22:28:38;14.23;;;9.63;;
60002;SDS011;46322;52.018;8.702;2022-07-29T22:33:38;13.85;;;9.60;;
60002;SDS011;46322;52.018;8.702;2022-07-29T22:38:38;14.33;;;9.67;;
60002;SDS011;46322;52.018;8.702;2022-07-29T22:43:38;14.73;;;10.73;;
60002;SDS011;46322;52.018;8.702;2022-07-29T22:48:39;17.40;;;11.17;;
60002;SDS011;46322;52.018;8.702;2022-07-29T22:53:39;15.93;;;11.30;;
60002;SDS011;46322;52.018;8.702;2022-07-29T22:58:39;16.55;;;11.73;;
60002;SDS011;46322;52.018;8.702;2022-07-29T23:03:39;15.98;;;11.65;;
60002;SDS011;46322;52.018;8.702;2022-07-29T23:08:42;18.85;;;11.93;;
60002;SDS011;46322;52.018;8.702;2022-07-29T23:13:43;15.10;;;11.02;;
60002;SDS011;46322;52.018;8.702;2022-07-29T23:18:43;15.82;;;11.57;;
60002;SDS011;46322;52.018;8.702;2022-07-29T23:23:43;17.83;;;11.57;;
60002;SDS011;46322;52.018;8.702;2022-07-29T23:28:44;18.23;;;12.83;;
60002;SDS011;46322;52.018;8.702;2022-07-29T23:33:45;17.30;;;12.20;;
60002;SDS011;46322;52.018;8.702;2022-07-29T23:38:45;17.58;;;13.20;;
60002;SDS011;46322;52.018;8.702;2022-07-29T23:43:49;17.13;;;12.07;;
60002;SDS011;46322;52.018;8.702;2022-07-29T23:48:49;19.93;;;13.27;;
60002;SDS011;46322;52.018;8.702;2022-07-29T23:53:49;19.90;;;13.43;;
60002;SDS011;46322;52.018;8.702;2022-07-29T23:58:50;19.38;;;12.73;;
